createdAt,value
2022-11-02T00:00:29.998Z,14.38
2022-11-02T00:02:57.864Z,14.42
2022-11-02T00:05:27.518Z,14.47
2022-11-02T00:07:56.806Z,14.51
2022-11-02T00:10:25.438Z,14.52
2022-11-02T00:12:53.883Z,14.53
2022-11-02T00:15:21.668Z,14.51
2022-11-02T00:17:54.592Z,14.54
2022-11-02T00:20:22.603Z,14.55
2022-11-02T00:22:56.108Z,14.53
2022-11-02T00:25:25.333Z,14.51
2022-11-02T00:27:53.276Z,14.55
2022-11-02T00:30:21.128Z,14.56
2022-11-02T00:32:48.899Z,14.53
2022-11-02T00:35:16.792Z,14.49
2022-11-02T00:37:44.496Z,14.47
2022-11-02T00:40:14.097Z,14.47
2022-11-02T00:42:41.840Z,14.50
2022-11-02T00:45:10.550Z,14.54
2022-11-02T00:47:38.720Z,14.59
2022-11-02T00:50:07.602Z,14.64
2022-11-02T00:52:35.329Z,14.70
2022-11-02T00:55:03.026Z,14.80
2022-11-02T00:57:32.307Z,14.85
2022-11-02T01:00:00.037Z,14.86
2022-11-02T01:02:27.891Z,14.87
2022-11-02T01:04:55.730Z,14.88
2022-11-02T01:07:23.427Z,14.86
2022-11-02T01:09:51.125Z,14.85
2022-11-02T01:12:18.847Z,14.85
2022-11-02T01:14:48.850Z,14.86
2022-11-02T01:17:17.166Z,14.86
2022-11-02T01:19:44.974Z,14.91
2022-11-02T01:22:12.961Z,15.00
2022-11-02T01:24:40.713Z,15.02
2022-11-02T01:27:08.558Z,15.05
2022-11-02T01:29:36.332Z,15.11
2022-11-02T01:32:05.876Z,15.06
2022-11-02T01:34:33.772Z,15.02
2022-11-02T01:37:01.562Z,14.96
2022-11-02T01:39:29.276Z,14.94
2022-11-02T01:41:57.037Z,14.88
2022-11-02T01:44:30.694Z,14.84
2022-11-02T01:47:02.941Z,14.92
2022-11-02T01:49:34.802Z,14.84
2022-11-02T01:52:08.205Z,14.75
2022-11-02T01:54:41.095Z,14.69
2022-11-02T01:57:11.687Z,14.65
2022-11-02T01:59:44.770Z,14.63
2022-11-02T02:02:16.859Z,14.63
2022-11-02T02:04:49.061Z,14.61
2022-11-02T02:07:17.678Z,14.59
2022-11-02T02:09:48.685Z,14.58
2022-11-02T02:12:19.707Z,14.61
2022-11-02T02:14:47.781Z,14.63
2022-11-02T02:17:27.310Z,14.61
2022-11-02T02:20:01.886Z,14.57
2022-11-02T02:23:05.398Z,14.59
2022-11-02T02:26:16.141Z,14.59
2022-11-02T02:28:51.498Z,14.60
2022-11-02T02:31:25.795Z,14.67
2022-11-02T02:34:02.141Z,14.63
2022-11-02T02:36:33.940Z,14.59
2022-11-02T02:39:06.779Z,14.59
2022-11-02T02:41:40.590Z,14.64
2022-11-02T02:44:14.340Z,14.64
2022-11-02T02:46:46.699Z,14.59
2022-11-02T02:49:19.401Z,14.59
2022-11-02T02:51:48.256Z,14.54
2022-11-02T02:54:20.227Z,14.52
2022-11-02T02:56:52.303Z,14.49
2022-11-02T02:59:25.345Z,14.43
2022-11-02T03:01:55.200Z,14.44
2022-11-02T03:04:23.117Z,14.43
2022-11-02T03:06:53.464Z,14.41
2022-11-02T03:09:28.987Z,14.39
2022-11-02T03:12:06.633Z,14.42
2022-11-02T03:14:44.174Z,14.45
2022-11-02T03:17:17.886Z,14.43
2022-11-02T03:19:56.509Z,14.47
2022-11-02T03:22:33.686Z,14.41
2022-11-02T03:25:10.178Z,14.38
2022-11-02T03:27:47.778Z,14.39
2022-11-02T03:30:20.548Z,14.34
2022-11-02T03:32:53.439Z,14.31
2022-11-02T03:35:26.047Z,14.33
2022-11-02T03:37:59.732Z,14.31
2022-11-02T03:40:30.907Z,14.33
2022-11-02T03:42:59.978Z,14.28
2022-11-02T03:45:36.719Z,14.29
2022-11-02T03:48:08.374Z,14.25
2022-11-02T03:50:39.413Z,14.20
2022-11-02T03:53:10.897Z,14.21
2022-11-02T03:55:43.305Z,14.23
2022-11-02T03:58:11.457Z,14.13
2022-11-02T04:00:48.840Z,14.08
2022-11-02T04:03:18.514Z,14.03
2022-11-02T04:05:46.306Z,14.08
2022-11-02T04:08:24.470Z,13.99
2022-11-02T04:11:11.089Z,13.95
2022-11-02T04:13:56.570Z,13.92
2022-11-02T04:16:28.187Z,13.86
2022-11-02T04:19:13.811Z,13.85
2022-11-02T04:22:01.923Z,13.84
2022-11-02T04:24:47.297Z,13.84
2022-11-02T04:27:19.633Z,13.84
2022-11-02T04:29:48.557Z,13.84
2022-11-02T04:32:37.803Z,13.84
2022-11-02T04:35:05.438Z,13.85
2022-11-02T04:37:50.768Z,13.87
2022-11-02T04:40:18.631Z,13.92
2022-11-02T04:42:48.002Z,13.85
2022-11-02T04:45:15.938Z,13.81
2022-11-02T04:47:45.040Z,13.87
2022-11-02T04:50:13.730Z,13.83
2022-11-02T04:52:41.452Z,13.81
2022-11-02T04:55:09.750Z,13.82
2022-11-02T04:57:37.549Z,13.77
2022-11-02T05:00:07.703Z,13.74
2022-11-02T05:02:35.507Z,13.71
2022-11-02T05:05:06.234Z,13.70
2022-11-02T05:07:33.977Z,13.69
2022-11-02T05:10:01.708Z,13.70
2022-11-02T05:12:29.527Z,13.73
2022-11-02T05:15:05.092Z,13.69
2022-11-02T05:17:32.929Z,13.67
2022-11-02T05:20:00.668Z,13.68
2022-11-02T05:22:29.748Z,13.61
2022-11-02T05:24:57.555Z,13.58
2022-11-02T05:27:25.262Z,13.59
2022-11-02T05:29:53.048Z,13.59
2022-11-02T05:32:20.884Z,13.58
2022-11-02T05:34:48.711Z,13.53
2022-11-02T05:37:16.475Z,13.51
2022-11-02T05:39:47.887Z,13.42
2022-11-02T05:42:18.203Z,13.41
2022-11-02T05:44:45.894Z,13.42
2022-11-02T05:47:13.634Z,13.41
2022-11-02T05:49:41.473Z,13.40
2022-11-02T05:52:09.681Z,13.41
2022-11-02T05:54:37.462Z,13.42
2022-11-02T05:57:06.739Z,13.37
2022-11-02T05:59:34.537Z,13.33
2022-11-02T06:02:02.357Z,13.34
2022-11-02T06:04:30.133Z,13.28
2022-11-02T06:06:57.891Z,13.28
2022-11-02T06:09:25.596Z,13.26
2022-11-02T06:11:53.373Z,13.23
2022-11-02T06:14:22.533Z,13.23
2022-11-02T06:16:50.411Z,13.26
2022-11-02T06:19:18.138Z,13.25
2022-11-02T06:21:48.413Z,13.28
2022-11-02T06:24:16.583Z,13.30
2022-11-02T06:26:44.370Z,13.35
2022-11-02T06:29:12.081Z,13.38
2022-11-02T06:31:41.265Z,13.41
2022-11-02T06:34:09.104Z,13.42
2022-11-02T06:36:37.079Z,13.49
2022-11-02T06:39:05.051Z,13.53
2022-11-02T06:41:32.758Z,13.48
2022-11-02T06:44:00.494Z,13.48
2022-11-02T06:46:28.421Z,13.49
2022-11-02T06:48:58.886Z,13.46
2022-11-02T06:51:26.735Z,13.44
2022-11-02T06:53:54.505Z,13.46
2022-11-02T06:56:22.321Z,13.52
2022-11-02T06:58:50.097Z,13.54
2022-11-02T07:01:18.173Z,13.59
2022-11-02T07:03:46.077Z,13.60
2022-11-02T07:06:15.343Z,13.62
2022-11-02T07:08:43.453Z,13.64
2022-11-02T07:11:15.091Z,13.67
2022-11-02T07:13:43.543Z,13.66
2022-11-02T07:16:11.403Z,13.60
2022-11-02T07:18:39.331Z,13.56
2022-11-02T07:21:07.641Z,13.61
2022-11-02T07:23:36.969Z,13.62
2022-11-02T07:26:05.535Z,13.68
2022-11-02T07:28:33.423Z,13.60
2022-11-02T07:31:01.185Z,13.63
2022-11-02T07:33:28.907Z,13.65
2022-11-02T07:35:56.710Z,13.67
2022-11-02T07:38:24.471Z,13.68
2022-11-02T07:40:53.824Z,13.67
2022-11-02T07:43:21.737Z,13.64
2022-11-02T07:45:49.546Z,13.57
2022-11-02T07:48:17.283Z,13.56
2022-11-02T07:50:45.106Z,13.50
2022-11-02T07:53:12.951Z,13.50
2022-11-02T07:55:41.740Z,13.54
2022-11-02T07:58:14.104Z,13.56
2022-11-02T08:00:42.703Z,13.56
2022-11-02T08:03:12.527Z,13.56
2022-11-02T08:05:42.553Z,13.62
2022-11-02T08:08:13.242Z,13.63
2022-11-02T08:10:41.712Z,13.61
2022-11-02T08:13:12.293Z,13.63
2022-11-02T08:15:40.243Z,13.66
2022-11-02T08:18:09.514Z,13.66
2022-11-02T08:20:37.970Z,13.71
2022-11-02T08:23:07.504Z,13.73
2022-11-02T08:25:36.219Z,13.74
2022-11-02T08:28:04.827Z,13.78
2022-11-02T08:30:34.936Z,13.77
2022-11-02T08:33:05.141Z,13.76
2022-11-02T08:35:33.254Z,13.76
2022-11-02T08:38:01.084Z,13.81
2022-11-02T08:40:29.088Z,13.83
2022-11-02T08:42:58.126Z,13.91
2022-11-02T08:45:25.909Z,13.94
2022-11-02T08:47:55.418Z,13.97
2022-11-02T08:50:23.962Z,14.09
2022-11-02T08:52:52.140Z,14.11
2022-11-02T08:55:20.160Z,14.02
2022-11-02T08:57:48.241Z,14.07
2022-11-02T09:00:16.880Z,14.02
2022-11-02T09:02:45.209Z,13.95
2022-11-02T09:05:14.512Z,13.92
2022-11-02T09:07:42.255Z,13.91
2022-11-02T09:10:10.860Z,13.95
2022-11-02T09:12:38.746Z,14.00
2022-11-02T09:15:07.482Z,14.09
2022-11-02T09:17:35.198Z,14.18
2022-11-02T09:20:03.053Z,14.29
2022-11-02T09:22:32.364Z,14.40
2022-11-02T09:25:00.237Z,14.45
2022-11-02T09:27:28.029Z,14.52
2022-11-02T09:29:56.201Z,14.60
2022-11-02T09:32:24.253Z,14.59
2022-11-02T09:34:52.268Z,14.60
2022-11-02T09:37:20.150Z,14.64
2022-11-02T09:39:49.616Z,14.68
2022-11-02T09:42:23.833Z,14.70
2022-11-02T09:44:58.018Z,14.73
2022-11-02T09:48:10.699Z,14.79
2022-11-02T09:50:22.116Z,14.85
2022-11-02T09:52:54.745Z,14.82
2022-11-02T09:55:30.216Z,14.75
2022-11-02T09:58:04.436Z,14.66
2022-11-02T10:00:36.752Z,14.65
2022-11-02T10:03:19.010Z,14.68
2022-11-02T10:05:52.470Z,14.69
2022-11-02T10:08:28.865Z,14.76
2022-11-02T10:11:12.851Z,14.78
2022-11-02T10:13:45.047Z,14.78
2022-11-02T10:16:18.756Z,14.80
2022-11-02T10:18:49.438Z,14.80
2022-11-02T10:21:21.881Z,14.74
2022-11-02T10:23:51.897Z,14.78
2022-11-02T10:26:24.419Z,14.76
2022-11-02T10:28:58.172Z,14.80
2022-11-02T10:31:30.411Z,14.93
2022-11-02T10:34:01.943Z,15.08
2022-11-02T10:36:45.916Z,15.26
2022-11-02T10:39:27.627Z,15.33
2022-11-02T10:42:08.666Z,15.39
2022-11-02T10:44:56.220Z,15.41
2022-11-02T10:47:26.717Z,15.45
2022-11-02T10:50:25.154Z,15.46
2022-11-02T10:52:52.949Z,15.38
2022-11-02T10:55:27.241Z,15.42
2022-11-02T10:58:00.012Z,15.37
2022-11-02T11:00:33.473Z,15.39
2022-11-02T11:03:10.278Z,15.43
2022-11-02T11:05:57.927Z,15.37
2022-11-02T11:08:37.136Z,15.29
2022-11-02T11:11:13.637Z,15.20
2022-11-02T11:16:35.342Z,15.16
2022-11-02T11:21:52.063Z,15.29
2022-11-02T11:24:26.171Z,15.33
2022-11-02T11:27:05.977Z,15.35
2022-11-02T11:29:39.018Z,15.32
2022-11-02T11:32:15.742Z,15.36
2022-11-02T11:34:46.966Z,15.45
2022-11-02T11:37:17.104Z,15.54
2022-11-02T11:39:52.405Z,15.59
2022-11-02T11:42:24.844Z,15.70
2022-11-02T11:44:59.499Z,15.78
2022-11-02T11:47:30.444Z,15.80
2022-11-02T11:50:09.074Z,15.88
2022-11-02T11:52:44.831Z,15.95
2022-11-02T11:55:23.252Z,15.89
2022-11-02T11:58:07.297Z,16.00
2022-11-02T12:00:37.065Z,16.02
2022-11-02T12:03:07.672Z,16.08
2022-11-02T12:05:46.038Z,16.11
2022-11-02T12:08:35.306Z,16.06
2022-11-02T12:11:26.892Z,16.17
2022-11-02T12:14:09.431Z,16.22
2022-11-02T12:16:55.699Z,16.34
2022-11-02T12:19:33.998Z,16.40
2022-11-02T12:22:12.666Z,16.43
2022-11-02T12:25:05.191Z,16.52
2022-11-02T12:27:43.617Z,16.56
2022-11-02T12:30:15.655Z,16.59
2022-11-02T12:32:57.048Z,16.69
2022-11-02T12:35:49.960Z,16.72
2022-11-02T12:38:37.214Z,16.77
2022-11-02T12:41:08.455Z,16.72
2022-11-02T12:43:45.098Z,16.63
2022-11-02T12:46:38.333Z,16.58
2022-11-02T12:49:25.352Z,16.59
2022-11-02T12:51:59.528Z,16.64
2022-11-02T12:54:41.401Z,16.64
2022-11-02T12:57:13.515Z,16.59
2022-11-02T12:59:44.706Z,16.51
2022-11-02T13:02:17.730Z,16.32
2022-11-02T13:04:52.621Z,16.17
2022-11-02T13:07:27.699Z,16.14
2022-11-02T13:10:02.004Z,16.22
2022-11-02T13:12:33.513Z,16.20
2022-11-02T13:15:03.364Z,16.27
2022-11-02T13:17:41.964Z,16.24
2022-11-02T13:20:19.455Z,16.17
2022-11-02T13:22:52.070Z,16.19
2022-11-02T13:25:24.158Z,16.22
2022-11-02T13:27:55.630Z,16.30
2022-11-02T13:30:23.474Z,16.42
2022-11-02T13:32:55.752Z,16.56
2022-11-02T13:35:31.909Z,16.72
2022-11-02T13:38:06.540Z,16.80
2022-11-02T13:40:42.018Z,16.83
2022-11-02T13:43:36.755Z,16.77
2022-11-02T13:46:28.533Z,16.70
2022-11-02T13:49:02.318Z,16.65
2022-11-02T13:51:38.072Z,16.52
2022-11-02T13:54:13.229Z,16.39
2022-11-02T13:56:42.402Z,16.33
2022-11-02T13:59:19.202Z,16.32
2022-11-02T14:01:47.695Z,16.29
2022-11-02T14:04:16.797Z,16.29
2022-11-02T14:06:50.752Z,16.31
2022-11-02T14:09:31.630Z,16.32
2022-11-02T14:12:26.810Z,16.43
2022-11-02T14:15:38.557Z,16.43
2022-11-02T14:18:13.823Z,16.42
2022-11-02T14:20:43.237Z,16.40
2022-11-02T14:23:37.687Z,16.39
2022-11-02T14:26:05.755Z,16.32
2022-11-02T14:28:43.826Z,16.32
2022-11-02T14:31:37.651Z,16.32
2022-11-02T14:34:22.985Z,16.31
2022-11-02T14:37:07.388Z,16.24
2022-11-02T14:39:48.809Z,16.21
2022-11-02T14:42:31.634Z,16.19
2022-11-02T14:45:22.475Z,16.11
2022-11-02T14:47:57.879Z,16.08
2022-11-02T14:50:26.876Z,16.12
2022-11-02T14:52:59.816Z,16.15
2022-11-02T14:55:30.741Z,16.18
2022-11-02T14:58:05.346Z,16.18
2022-11-02T15:00:39.650Z,16.17
2022-11-02T15:03:29.275Z,16.06
2022-11-02T15:06:03.206Z,16.00
2022-11-02T15:08:34.597Z,15.95
2022-11-02T15:11:44.016Z,15.90
2022-11-02T15:14:48.638Z,15.82
2022-11-02T15:18:02.039Z,15.75
2022-11-02T15:20:34.408Z,15.66
2022-11-02T15:23:31.256Z,15.65
2022-11-02T15:26:01.052Z,15.59
2022-11-02T15:28:35.897Z,15.53
2022-11-02T15:31:08.282Z,15.48
2022-11-02T15:33:40.459Z,15.44
2022-11-02T15:36:15.705Z,15.40
2022-11-02T15:38:49.399Z,15.36
2022-11-02T15:41:26.924Z,15.30
2022-11-02T15:44:16.877Z,15.26
2022-11-02T15:46:56.067Z,15.22
2022-11-02T15:49:41.518Z,15.20
2022-11-02T15:52:20.620Z,15.17
2022-11-02T15:55:02.215Z,15.10
2022-11-02T15:57:41.403Z,15.04
2022-11-02T16:00:18.015Z,15.02
2022-11-02T16:02:48.658Z,14.98
2022-11-02T16:05:20.891Z,14.96
2022-11-02T16:08:09.967Z,14.94
2022-11-02T16:10:38.763Z,14.91
2022-11-02T16:13:16.952Z,14.85
2022-11-02T16:15:48.794Z,14.82
2022-11-02T16:18:25.224Z,14.86
2022-11-02T16:20:54.925Z,14.84
2022-11-02T16:23:25.420Z,14.84
2022-11-02T16:26:00.666Z,14.81
2022-11-02T16:28:30.485Z,14.75
2022-11-02T16:31:17.423Z,14.78
2022-11-02T16:33:48.235Z,14.79
2022-11-02T16:36:18.424Z,14.83
2022-11-02T16:38:55.288Z,14.85
2022-11-02T16:41:23.368Z,14.84
2022-11-02T16:43:52.007Z,14.81
2022-11-02T16:46:30.871Z,14.80
2022-11-02T16:49:08.484Z,14.75
2022-11-02T16:51:36.614Z,14.75
2022-11-02T16:54:27.338Z,14.70
2022-11-02T16:56:56.791Z,14.66
2022-11-02T16:59:25.538Z,14.63
2022-11-02T17:02:00.004Z,14.61
2022-11-02T17:04:30.979Z,14.59
2022-11-02T17:07:10.290Z,14.56
2022-11-02T17:09:38.854Z,14.56
2022-11-02T17:12:11.550Z,14.55
2022-11-02T17:14:42.440Z,14.52
2022-11-02T17:17:38.046Z,14.53
2022-11-02T17:20:18.063Z,14.50
2022-11-02T17:22:54.293Z,14.44
2022-11-02T17:25:23.944Z,14.47
2022-11-02T17:27:52.898Z,14.60
2022-11-02T17:30:42.462Z,14.66
2022-11-02T17:33:21.104Z,14.63
2022-11-02T17:35:50.541Z,14.59
2022-11-02T17:38:19.728Z,14.56
2022-11-02T17:40:52.066Z,14.51
2022-11-02T17:43:19.646Z,14.42
2022-11-02T17:45:54.169Z,14.34
2022-11-02T17:48:24.659Z,14.30
2022-11-02T17:50:54.750Z,14.30
2022-11-02T17:53:23.774Z,14.30
2022-11-02T17:55:52.094Z,14.30
2022-11-02T17:58:19.870Z,14.26
2022-11-02T18:00:47.755Z,14.23
2022-11-02T18:03:19.053Z,14.19
2022-11-02T18:05:53.562Z,14.18
2022-11-02T18:08:52.249Z,14.12
2022-11-02T18:11:25.839Z,14.09
2022-11-02T18:13:54.217Z,14.11
2022-11-02T18:16:22.165Z,14.15
2022-11-02T18:18:49.996Z,14.17
2022-11-02T18:21:19.424Z,14.10
2022-11-02T18:23:47.318Z,14.08
2022-11-02T18:26:15.209Z,14.04
2022-11-02T18:28:42.993Z,14.05
2022-11-02T18:31:10.884Z,14.09
2022-11-02T18:33:38.745Z,14.13
2022-11-02T18:36:07.652Z,14.23
2022-11-02T18:38:37.114Z,14.26
2022-11-02T18:41:26.183Z,14.25
2022-11-02T18:43:56.888Z,14.28
2022-11-02T18:46:30.735Z,14.30
2022-11-02T18:48:59.593Z,14.35
2022-11-02T18:51:27.771Z,14.28
2022-11-02T18:53:58.847Z,14.23
2022-11-02T18:56:26.935Z,14.21
2022-11-02T18:58:56.197Z,14.26
2022-11-02T19:01:26.049Z,14.22
2022-11-02T19:03:55.587Z,14.17
2022-11-02T19:06:38.330Z,14.17
2022-11-02T19:09:20.791Z,14.16
2022-11-02T19:11:53.393Z,14.13
2022-11-02T19:14:23.478Z,14.14
2022-11-02T19:16:51.473Z,14.14
2022-11-02T19:19:19.353Z,14.10
2022-11-02T19:21:47.354Z,14.17
2022-11-02T19:24:16.566Z,14.24
2022-11-02T19:26:44.354Z,14.27
2022-11-02T19:29:12.103Z,14.35
2022-11-02T19:31:40.052Z,14.42
2022-11-02T19:34:07.828Z,14.44
2022-11-02T19:36:36.940Z,14.40
2022-11-02T19:39:07.108Z,14.33
2022-11-02T19:41:37.514Z,14.28
2022-11-02T19:44:05.805Z,14.19
2022-11-02T19:46:34.007Z,14.34
2022-11-02T19:49:02.227Z,14.42
2022-11-02T19:51:31.535Z,14.43
2022-11-02T19:54:04.002Z,14.40
2022-11-02T19:56:32.746Z,14.26
2022-11-02T19:59:02.815Z,14.15
2022-11-02T20:01:32.223Z,14.10
2022-11-02T20:04:00.905Z,14.09
2022-11-02T20:06:32.168Z,14.10
2022-11-02T20:09:01.666Z,14.12
2022-11-02T20:11:29.894Z,14.08
2022-11-02T20:13:58.529Z,14.03
2022-11-02T20:16:28.524Z,13.98
2022-11-02T20:18:56.974Z,13.91
2022-11-02T20:21:31.547Z,13.97
2022-11-02T20:24:02.253Z,13.92
2022-11-02T20:26:31.320Z,13.92
2022-11-02T20:29:00.744Z,13.87
2022-11-02T20:31:32.396Z,13.89
2022-11-02T20:34:00.842Z,13.90
2022-11-02T20:36:28.751Z,13.89
2022-11-02T20:38:56.710Z,13.87
2022-11-02T20:41:26.172Z,13.88
2022-11-02T20:43:55.436Z,13.83
2022-11-02T20:46:42.296Z,13.78
2022-11-02T20:49:22.263Z,13.75
2022-11-02T20:52:00.392Z,13.76
2022-11-02T20:54:29.848Z,13.82
2022-11-02T20:56:58.007Z,13.78
2022-11-02T20:59:26.187Z,13.73
2022-11-02T21:01:55.343Z,13.77
2022-11-02T21:04:24.682Z,13.67
2022-11-02T21:06:52.609Z,13.64
2022-11-02T21:09:20.631Z,13.63
2022-11-02T21:12:05.914Z,13.60
2022-11-02T21:14:33.705Z,13.57
2022-11-02T21:17:02.679Z,13.60
2022-11-02T21:19:31.949Z,13.56
2022-11-02T21:22:00.533Z,13.59
2022-11-02T21:24:28.820Z,13.63
2022-11-02T21:26:56.622Z,13.53
2022-11-02T21:29:24.495Z,13.42
2022-11-02T21:31:52.267Z,13.35
2022-11-02T21:34:20.161Z,13.23
2022-11-02T21:36:50.058Z,13.21
2022-11-02T21:39:18.125Z,13.35
2022-11-02T21:41:46.005Z,13.35
2022-11-02T21:44:13.748Z,13.47
2022-11-02T21:46:41.600Z,13.57
2022-11-02T21:49:09.589Z,13.53
2022-11-02T21:51:38.636Z,13.48
2022-11-02T21:54:08.214Z,13.43
2022-11-02T21:56:37.107Z,13.45
2022-11-02T21:59:05.948Z,13.40
2022-11-02T22:01:48.631Z,13.37
2022-11-02T22:04:19.648Z,13.29
2022-11-02T22:06:47.634Z,13.20
2022-11-02T22:09:17.261Z,13.12
2022-11-02T22:11:45.563Z,13.07
2022-11-02T22:14:13.195Z,13.01
2022-11-02T22:16:43.017Z,13.01
2022-11-02T22:19:12.605Z,12.96
2022-11-02T22:21:42.190Z,12.94
2022-11-02T22:24:11.264Z,12.96
2022-11-02T22:26:41.680Z,12.97
2022-11-02T22:29:09.820Z,12.95
2022-11-02T22:31:39.590Z,12.92
2022-11-02T22:34:09.127Z,12.92
2022-11-02T22:36:38.437Z,12.93
2022-11-02T22:39:07.004Z,12.91
2022-11-02T22:41:37.252Z,12.93
2022-11-02T22:44:07.969Z,12.92
2022-11-02T22:46:37.798Z,12.90
2022-11-02T22:49:06.248Z,12.88
2022-11-02T22:51:36.181Z,12.90
2022-11-02T22:54:06.097Z,12.87
2022-11-02T22:56:35.084Z,12.87
2022-11-02T22:59:03.319Z,12.86
2022-11-02T23:01:34.039Z,12.86
2022-11-02T23:04:02.266Z,12.86
2022-11-02T23:06:30.369Z,12.87
2022-11-02T23:08:59.641Z,12.83
2022-11-02T23:11:29.102Z,12.79
2022-11-02T23:13:58.341Z,12.77
2022-11-02T23:16:27.924Z,12.77
2022-11-02T23:19:20.322Z,12.76
2022-11-02T23:22:09.852Z,12.75
2022-11-02T23:24:54.982Z,12.72
2022-11-02T23:27:22.733Z,12.72
2022-11-02T23:30:08.096Z,12.73
2022-11-02T23:32:35.950Z,12.74
2022-11-02T23:35:23.679Z,12.77
2022-11-02T23:37:51.612Z,12.78
2022-11-02T23:40:20.060Z,12.76
2022-11-02T23:42:47.891Z,12.75
2022-11-02T23:45:15.678Z,12.73
2022-11-02T23:48:00.354Z,12.76
2022-11-02T23:50:49.816Z,12.72
2022-11-02T23:53:37.221Z,12.70
2022-11-02T23:56:23.678Z,12.70
2022-11-02T23:59:06.503Z,12.69
